createdAt,value
2022-08-25T00:01:55.320Z,100.00
2022-08-25T00:04:22.888Z,100.00
2022-08-25T00:06:49.286Z,100.00
2022-08-25T00:09:17.059Z,100.00
2022-08-25T00:11:44.070Z,100.00
2022-08-25T00:14:13.217Z,100.00
2022-08-25T00:16:39.729Z,100.00
2022-08-25T00:19:08.450Z,100.00
2022-08-25T00:21:34.885Z,100.00
2022-08-25T00:24:02.361Z,100.00
2022-08-25T00:26:29.356Z,100.00
2022-08-25T00:29:01.640Z,100.00
2022-08-25T00:31:38.669Z,100.00
2022-08-25T00:34:07.564Z,100.00
2022-08-25T00:36:34.222Z,100.00
2022-08-25T00:39:00.533Z,100.00
2022-08-25T00:41:27.100Z,100.00
2022-08-25T00:43:56.630Z,100.00
2022-08-25T00:46:25.545Z,100.00
2022-08-25T00:48:55.636Z,100.00
2022-08-25T00:51:25.543Z,100.00
2022-08-25T00:53:51.865Z,100.00
2022-08-25T00:56:18.731Z,100.00
2022-08-25T00:58:47.843Z,100.00
2022-08-25T01:01:14.264Z,100.00
2022-08-25T01:03:40.739Z,100.00
2022-08-25T01:06:07.168Z,100.00
2022-08-25T01:08:33.983Z,100.00
2022-08-25T01:11:05.279Z,100.00
2022-08-25T01:13:34.443Z,100.00
2022-08-25T01:16:01.259Z,100.00
2022-08-25T01:18:28.312Z,100.00
2022-08-25T01:20:55.809Z,100.00
2022-08-25T01:23:23.195Z,100.00
2022-08-25T01:25:58.905Z,100.00
2022-08-25T01:28:25.221Z,100.00
2022-08-25T01:30:52.465Z,100.00
2022-08-25T01:33:18.905Z,100.00
2022-08-25T01:35:45.758Z,100.00
2022-08-25T01:38:12.289Z,100.00
2022-08-25T01:40:39.824Z,100.00
2022-08-25T01:43:09.587Z,100.00
2022-08-25T01:45:36.307Z,100.00
2022-08-25T01:48:03.070Z,100.00
2022-08-25T01:50:29.439Z,100.00
2022-08-25T01:52:55.823Z,100.00
2022-08-25T01:55:22.224Z,100.00
2022-08-25T01:57:48.634Z,100.00
2022-08-25T02:00:15.566Z,100.00
2022-08-25T02:02:42.701Z,100.00
2022-08-25T02:05:10.919Z,100.00
2022-08-25T02:07:38.311Z,100.00
2022-08-25T02:10:06.470Z,100.00
2022-08-25T02:12:33.310Z,100.00
2022-08-25T02:15:01.694Z,100.00
2022-08-25T02:17:29.176Z,100.00
2022-08-25T02:19:56.959Z,100.00
2022-08-25T02:22:23.920Z,100.00
2022-08-25T02:24:50.310Z,100.00
2022-08-25T02:27:16.624Z,100.00
2022-08-25T02:29:42.948Z,100.00
2022-08-25T02:32:10.299Z,100.00
2022-08-25T02:34:37.206Z,100.00
2022-08-25T02:37:03.578Z,100.00
2022-08-25T02:39:29.947Z,100.00
2022-08-25T02:41:56.255Z,100.00
2022-08-25T02:44:22.583Z,100.00
2022-08-25T02:46:48.900Z,100.00
2022-08-25T02:49:15.211Z,100.00
2022-08-25T02:51:41.539Z,100.00
2022-08-25T02:54:07.874Z,100.00
2022-08-25T02:56:34.374Z,100.00
2022-08-25T02:59:01.849Z,100.00
2022-08-25T03:01:29.181Z,100.00
2022-08-25T03:03:55.986Z,100.00
2022-08-25T03:06:25.087Z,100.00
2022-08-25T03:08:52.317Z,100.00
2022-08-25T03:11:18.712Z,100.00
2022-08-25T03:13:45.381Z,100.00
2022-08-25T03:16:12.365Z,100.00
2022-08-25T03:18:40.550Z,100.00
2022-08-25T03:21:07.241Z,100.00
2022-08-25T03:23:33.583Z,100.00
2022-08-25T03:26:18.449Z,100.00
2022-08-25T03:28:44.836Z,100.00
2022-08-25T03:31:11.180Z,100.00
2022-08-25T03:33:38.337Z,100.00
2022-08-25T03:36:05.567Z,100.00
2022-08-25T03:38:31.984Z,100.00
2022-08-25T03:40:58.331Z,100.00
2022-08-25T03:43:24.708Z,100.00
2022-08-25T03:45:51.215Z,100.00
2022-08-25T03:48:17.737Z,100.00
2022-08-25T03:50:50.641Z,100.00
2022-08-25T03:53:18.826Z,100.00
2022-08-25T03:55:45.210Z,100.00
2022-08-25T03:58:12.374Z,100.00
2022-08-25T04:00:38.739Z,100.00
2022-08-25T04:03:05.085Z,100.00
2022-08-25T04:05:31.462Z,100.00
2022-08-25T04:08:01.688Z,100.00
2022-08-25T04:10:28.276Z,100.00
2022-08-25T04:12:55.898Z,100.00
2022-08-25T04:15:22.235Z,100.00
2022-08-25T04:17:48.525Z,100.00
2022-08-25T04:20:18.945Z,100.00
2022-08-25T04:22:45.404Z,100.00
2022-08-25T04:25:12.267Z,100.00
2022-08-25T04:27:38.674Z,100.00
2022-08-25T04:30:05.826Z,100.00
2022-08-25T04:32:32.532Z,100.00
2022-08-25T04:34:59.146Z,100.00
2022-08-25T04:37:25.519Z,100.00
2022-08-25T04:39:51.906Z,100.00
2022-08-25T04:42:18.266Z,100.00
2022-08-25T04:44:44.658Z,100.00
2022-08-25T04:47:11.048Z,100.00
2022-08-25T04:49:37.531Z,100.00
2022-08-25T04:52:04.202Z,100.00
2022-08-25T04:54:37.129Z,100.00
2022-08-25T04:57:03.995Z,100.00
2022-08-25T04:59:30.806Z,100.00
2022-08-25T05:01:58.673Z,100.00
2022-08-25T05:04:28.177Z,100.00
2022-08-25T05:06:55.104Z,100.00
2022-08-25T05:09:21.773Z,100.00
2022-08-25T05:11:48.232Z,100.00
2022-08-25T05:14:18.143Z,100.00
2022-08-25T05:16:46.225Z,100.00
2022-08-25T05:19:13.047Z,100.00
2022-08-25T05:21:39.843Z,100.00
2022-08-25T05:24:06.911Z,100.00
2022-08-25T05:26:34.078Z,100.00
2022-08-25T05:29:01.210Z,100.00
2022-08-25T05:31:28.455Z,100.00
2022-08-25T05:33:55.272Z,100.00
2022-08-25T05:36:22.551Z,100.00
2022-08-25T05:38:49.112Z,100.00
2022-08-25T05:41:16.891Z,100.00
2022-08-25T05:43:44.179Z,100.00
2022-08-25T05:46:11.132Z,100.00
2022-08-25T05:48:37.648Z,100.00
2022-08-25T05:51:05.602Z,100.00
2022-08-25T05:53:34.077Z,100.00
2022-08-25T05:56:01.052Z,100.00
2022-08-25T05:58:28.303Z,100.00
2022-08-25T06:00:55.208Z,100.00
2022-08-25T06:03:21.622Z,100.00
2022-08-25T06:05:48.077Z,100.00
2022-08-25T06:08:14.417Z,100.00
2022-08-25T06:10:40.735Z,100.00
2022-08-25T06:13:07.068Z,100.00
2022-08-25T06:15:33.925Z,100.00
2022-08-25T06:18:01.865Z,100.00
2022-08-25T06:20:30.653Z,100.00
2022-08-25T06:22:57.523Z,100.00
2022-08-25T06:25:25.205Z,100.00
2022-08-25T06:27:51.553Z,100.00
2022-08-25T06:30:24.371Z,100.00
2022-08-25T06:32:51.049Z,100.00
2022-08-25T06:35:18.817Z,100.00
2022-08-25T06:37:45.288Z,100.00
2022-08-25T06:40:12.033Z,100.00
2022-08-25T06:42:38.441Z,100.00
2022-08-25T06:45:06.314Z,100.00
2022-08-25T06:47:32.915Z,100.00
2022-08-25T06:49:59.246Z,100.00
2022-08-25T06:52:27.922Z,100.00
2022-08-25T06:54:55.880Z,100.00
2022-08-25T06:57:22.213Z,100.00
2022-08-25T06:59:49.148Z,100.00
2022-08-25T07:02:21.923Z,100.00
2022-08-25T07:04:48.649Z,100.00
2022-08-25T07:07:15.016Z,100.00
2022-08-25T07:09:41.339Z,100.00
2022-08-25T07:12:08.092Z,100.00
2022-08-25T07:14:35.259Z,100.00
2022-08-25T07:17:03.073Z,100.00
2022-08-25T07:19:38.580Z,100.00
2022-08-25T07:22:07.311Z,100.00
2022-08-25T07:24:35.743Z,100.00
2022-08-25T07:27:02.232Z,100.00
2022-08-25T07:29:31.893Z,100.00
2022-08-25T07:31:59.771Z,100.00
2022-08-25T07:34:44.632Z,100.00
2022-08-25T07:37:32.270Z,100.00
2022-08-25T07:40:05.755Z,100.00
2022-08-25T07:42:32.090Z,100.00
2022-08-25T07:44:58.698Z,100.00
2022-08-25T07:47:25.063Z,100.00
2022-08-25T07:49:51.994Z,100.00
2022-08-25T07:52:18.312Z,100.00
2022-08-25T07:54:44.649Z,100.00
2022-08-25T07:57:13.510Z,100.00
2022-08-25T07:59:42.855Z,100.00
2022-08-25T08:02:18.361Z,100.00
2022-08-25T08:04:48.398Z,100.00
2022-08-25T08:07:19.124Z,100.00
2022-08-25T08:09:45.669Z,100.00
2022-08-25T08:12:12.419Z,100.00
2022-08-25T08:14:44.865Z,100.00
2022-08-25T08:17:12.310Z,100.00
2022-08-25T08:19:44.883Z,100.00
2022-08-25T08:22:14.942Z,100.00
2022-08-25T08:24:54.820Z,100.00
2022-08-25T08:27:23.029Z,100.00
2022-08-25T08:29:49.337Z,100.00
2022-08-25T08:32:18.522Z,100.00
2022-08-25T08:34:46.125Z,100.00
2022-08-25T08:37:12.435Z,100.00
2022-08-25T08:39:39.582Z,100.00
2022-08-25T08:42:23.162Z,100.00
2022-08-25T08:45:09.880Z,100.00
2022-08-25T08:47:42.528Z,100.00
2022-08-25T08:50:27.898Z,100.00
2022-08-25T08:53:15.050Z,100.00
2022-08-25T08:55:43.806Z,100.00
2022-08-25T08:58:18.409Z,100.00
2022-08-25T09:00:52.329Z,100.00
2022-08-25T09:03:27.474Z,100.00
2022-08-25T09:05:56.545Z,100.00
2022-08-25T09:08:22.863Z,100.00
2022-08-25T09:10:58.348Z,100.00
2022-08-25T09:13:36.512Z,100.00
2022-08-25T09:16:31.770Z,100.00
2022-08-25T09:19:06.947Z,100.00
2022-08-25T09:21:39.410Z,100.00
2022-08-25T09:24:09.471Z,100.00
2022-08-25T09:26:58.913Z,100.00
2022-08-25T09:29:28.735Z,100.00
2022-08-25T09:31:57.813Z,100.00
2022-08-25T09:34:28.444Z,100.00
2022-08-25T09:36:54.755Z,100.00
2022-08-25T09:39:23.483Z,100.00
2022-08-25T09:41:53.000Z,100.00
2022-08-25T09:44:40.131Z,100.00
2022-08-25T09:47:13.566Z,100.00
2022-08-25T09:49:41.381Z,100.00
2022-08-25T09:52:23.004Z,100.00
2022-08-25T09:54:52.402Z,100.00
2022-08-25T09:57:29.276Z,100.00
2022-08-25T09:59:57.954Z,100.00
2022-08-25T10:02:28.871Z,100.00
2022-08-25T10:04:55.905Z,100.00
2022-08-25T10:07:30.600Z,100.00
2022-08-25T10:09:59.543Z,100.00
2022-08-25T10:12:38.021Z,100.00
2022-08-25T10:15:29.203Z,100.00
2022-08-25T10:17:57.560Z,100.00
2022-08-25T10:20:25.950Z,100.00
2022-08-25T10:23:09.434Z,100.00
2022-08-25T10:25:39.557Z,100.00
2022-08-25T10:28:15.482Z,100.00
2022-08-25T10:31:01.374Z,100.00
2022-08-25T10:33:35.606Z,100.00
2022-08-25T10:36:11.520Z,100.00
2022-08-25T10:38:43.877Z,100.00
2022-08-25T10:41:25.400Z,100.00
2022-08-25T10:43:54.795Z,100.00
2022-08-25T10:46:25.070Z,100.00
2022-08-25T10:48:52.612Z,100.00
2022-08-25T10:51:25.733Z,100.00
2022-08-25T10:53:53.030Z,100.00
2022-08-25T10:56:29.235Z,100.00
2022-08-25T10:58:55.573Z,100.00
2022-08-25T11:01:29.055Z,100.00
2022-08-25T11:04:01.874Z,100.00
2022-08-25T11:06:31.257Z,100.00
2022-08-25T11:09:00.555Z,100.00
2022-08-25T11:11:38.971Z,100.00
2022-08-25T11:14:16.883Z,100.00
2022-08-25T11:16:57.414Z,93.17
2022-08-25T11:19:26.742Z,88.64
2022-08-25T11:22:11.952Z,100.00
2022-08-25T11:24:39.419Z,100.00
2022-08-25T11:27:09.938Z,100.00
2022-08-25T11:29:41.820Z,100.00
2022-08-25T11:32:08.170Z,100.00
2022-08-25T11:34:36.900Z,100.00
2022-08-25T11:37:26.025Z,100.00
2022-08-25T11:40:11.696Z,100.00
2022-08-25T11:42:53.384Z,100.00
2022-08-25T11:45:38.400Z,100.00
2022-08-25T11:48:26.811Z,100.00
2022-08-25T11:50:53.804Z,100.00
2022-08-25T11:53:30.842Z,100.00
2022-08-25T11:56:17.479Z,93.11
2022-08-25T11:58:49.934Z,86.80
2022-08-25T12:01:35.621Z,73.00
2022-08-25T12:04:13.345Z,72.76
2022-08-25T12:06:59.990Z,70.67
2022-08-25T12:09:26.293Z,69.44
2022-08-25T12:11:57.977Z,65.99
2022-08-25T12:14:24.506Z,60.83
2022-08-25T12:16:54.838Z,56.65
2022-08-25T12:19:26.286Z,56.00
2022-08-25T12:22:15.068Z,60.90
2022-08-25T12:24:47.959Z,63.25
2022-08-25T12:27:33.544Z,65.12
2022-08-25T12:30:15.584Z,58.18
2022-08-25T12:32:44.983Z,55.05
2022-08-25T12:35:11.366Z,53.90
2022-08-25T12:37:55.995Z,53.46
2022-08-25T12:40:32.610Z,55.11
2022-08-25T12:43:19.805Z,60.63
2022-08-25T12:45:47.952Z,59.52
2022-08-25T12:48:26.279Z,55.79
2022-08-25T12:51:00.919Z,56.53
2022-08-25T12:53:41.350Z,57.79
2022-08-25T12:56:10.131Z,58.75
2022-08-25T12:59:01.110Z,58.32
2022-08-25T13:01:43.907Z,55.76
2022-08-25T13:04:29.270Z,47.61
2022-08-25T13:07:13.156Z,49.03
2022-08-25T13:09:46.000Z,54.76
2022-08-25T13:12:38.740Z,65.83
2022-08-25T13:15:05.279Z,84.51
2022-08-25T13:17:35.102Z,83.63
2022-08-25T13:20:30.785Z,69.88
2022-08-25T13:22:59.195Z,60.64
2022-08-25T13:25:32.243Z,56.00
2022-08-25T13:28:01.301Z,56.04
2022-08-25T13:30:31.741Z,59.30
2022-08-25T13:32:58.652Z,67.60
2022-08-25T13:35:32.190Z,69.96
2022-08-25T13:38:15.069Z,82.18
2022-08-25T13:40:43.201Z,76.96
2022-08-25T13:43:12.395Z,76.44
2022-08-25T13:45:46.460Z,87.88
2022-08-25T13:48:22.440Z,100.00
2022-08-25T13:51:08.334Z,100.00
2022-08-25T13:53:38.534Z,100.00
2022-08-25T13:56:05.125Z,87.82
2022-08-25T13:58:39.228Z,74.95
2022-08-25T14:01:47.883Z,81.24
2022-08-25T14:04:27.527Z,97.25
2022-08-25T14:07:12.504Z,100.00
2022-08-25T14:09:40.589Z,100.00
2022-08-25T14:12:07.568Z,100.00
2022-08-25T14:14:35.104Z,100.00
2022-08-25T14:17:28.858Z,97.25
2022-08-25T14:19:58.547Z,93.42
2022-08-25T14:22:25.371Z,100.00
2022-08-25T14:24:52.859Z,93.65
2022-08-25T14:27:19.517Z,96.48
2022-08-25T14:29:47.173Z,100.00
2022-08-25T14:32:16.841Z,100.00
2022-08-25T14:34:43.864Z,96.51
2022-08-25T14:37:12.876Z,99.29
2022-08-25T14:39:42.171Z,97.54
2022-08-25T14:42:11.505Z,86.36
2022-08-25T14:44:38.154Z,84.35
2022-08-25T14:47:06.962Z,84.76
2022-08-25T14:49:35.428Z,76.47
2022-08-25T14:52:06.764Z,79.57
2022-08-25T14:54:35.869Z,79.54
2022-08-25T14:57:04.292Z,82.67
2022-08-25T14:59:34.845Z,82.12
2022-08-25T15:02:01.252Z,82.34
2022-08-25T15:04:28.918Z,81.75
2022-08-25T15:06:56.613Z,78.78
2022-08-25T15:09:24.569Z,85.60
2022-08-25T15:11:52.402Z,89.27
2022-08-25T15:14:28.963Z,95.00
2022-08-25T15:16:59.847Z,100.00
2022-08-25T15:19:27.121Z,100.00
2022-08-25T15:21:53.960Z,100.00
2022-08-25T15:24:25.569Z,100.00
2022-08-25T15:29:22.139Z,100.00
2022-08-25T15:31:49.703Z,100.00
2022-08-25T15:34:17.062Z,100.00
2022-08-25T15:36:43.759Z,100.00
2022-08-25T15:39:10.452Z,100.00
2022-08-25T15:41:37.797Z,100.00
2022-08-25T15:44:06.178Z,100.00
2022-08-25T15:46:35.623Z,100.00
2022-08-25T15:49:02.341Z,100.00
2022-08-25T15:51:29.315Z,100.00
2022-08-25T15:53:56.987Z,100.00
2022-08-25T15:56:26.666Z,100.00
2022-08-25T15:58:53.409Z,100.00
2022-08-25T16:01:21.989Z,100.00
2022-08-25T16:03:51.293Z,100.00
2022-08-25T16:06:17.703Z,100.00
2022-08-25T16:08:44.483Z,100.00
2022-08-25T16:11:18.636Z,100.00
2022-08-25T16:13:45.675Z,100.00
2022-08-25T16:16:12.236Z,100.00
2022-08-25T16:18:38.617Z,100.00
2022-08-25T16:21:12.658Z,100.00
2022-08-25T16:23:39.549Z,100.00
2022-08-25T16:26:08.892Z,100.00
2022-08-25T16:28:36.952Z,100.00
2022-08-25T16:31:03.632Z,100.00
2022-08-25T16:33:30.042Z,100.00
2022-08-25T16:36:08.259Z,100.00
2022-08-25T16:38:35.667Z,100.00
2022-08-25T16:41:08.686Z,100.00
2022-08-25T16:43:35.966Z,100.00
2022-08-25T16:46:04.587Z,100.00
2022-08-25T16:48:31.307Z,100.00
2022-08-25T16:50:57.945Z,100.00
2022-08-25T16:53:42.969Z,100.00
2022-08-25T16:56:11.539Z,100.00
2022-08-25T16:58:38.654Z,100.00
2022-08-25T17:01:07.250Z,100.00
2022-08-25T17:03:36.987Z,100.00
2022-08-25T17:06:03.345Z,100.00
2022-08-25T17:08:30.771Z,100.00
2022-08-25T17:11:17.240Z,100.00
2022-08-25T17:13:44.874Z,100.00
2022-08-25T17:16:13.167Z,100.00
2022-08-25T17:18:41.111Z,100.00
2022-08-25T17:21:09.291Z,100.00
2022-08-25T17:23:36.498Z,100.00
2022-08-25T17:26:04.669Z,100.00
2022-08-25T17:28:31.895Z,100.00
2022-08-25T17:30:58.535Z,100.00
2022-08-25T17:33:25.579Z,100.00
2022-08-25T17:35:55.878Z,100.00
2022-08-25T17:38:26.078Z,100.00
2022-08-25T17:40:54.063Z,100.00
2022-08-25T17:43:21.373Z,100.00
2022-08-25T17:45:47.915Z,100.00
2022-08-25T17:48:15.031Z,100.00
2022-08-25T17:50:41.394Z,100.00
2022-08-25T17:53:09.192Z,100.00
2022-08-25T17:55:35.793Z,100.00
2022-08-25T17:58:03.059Z,100.00
2022-08-25T18:00:29.971Z,100.00
2022-08-25T18:02:57.405Z,100.00
2022-08-25T18:05:24.118Z,100.00
2022-08-25T18:07:54.178Z,100.00
2022-08-25T18:10:20.589Z,100.00
2022-08-25T18:12:46.915Z,100.00
2022-08-25T18:15:14.137Z,100.00
2022-08-25T18:17:40.944Z,100.00
2022-08-25T18:20:09.113Z,100.00
2022-08-25T18:22:35.794Z,100.00
2022-08-25T18:25:06.724Z,100.00
2022-08-25T18:27:34.260Z,100.00
2022-08-25T18:30:01.013Z,100.00
2022-08-25T18:32:28.000Z,100.00
2022-08-25T18:34:55.959Z,100.00
2022-08-25T18:37:42.019Z,100.00
2022-08-25T18:40:24.155Z,100.00
2022-08-25T18:42:54.899Z,100.00
2022-08-25T18:45:23.183Z,100.00
2022-08-25T18:47:56.358Z,100.00
2022-08-25T18:50:24.173Z,100.00
2022-08-25T18:52:50.640Z,100.00
2022-08-25T18:55:21.913Z,100.00
2022-08-25T18:57:48.319Z,100.00
2022-08-25T19:00:18.290Z,100.00
2022-08-25T19:02:48.915Z,100.00
2022-08-25T19:05:16.024Z,100.00
2022-08-25T19:07:43.199Z,100.00
2022-08-25T19:10:09.741Z,100.00
2022-08-25T19:12:36.781Z,100.00
2022-08-25T19:15:04.590Z,100.00
2022-08-25T19:17:37.367Z,100.00
2022-08-25T19:20:04.767Z,100.00
2022-08-25T19:22:41.681Z,100.00
2022-08-25T19:25:09.457Z,100.00
2022-08-25T19:27:35.779Z,100.00
2022-08-25T19:30:03.078Z,100.00
2022-08-25T19:32:30.088Z,100.00
2022-08-25T19:34:56.663Z,100.00
2022-08-25T19:37:27.305Z,100.00
2022-08-25T19:39:54.871Z,100.00
2022-08-25T19:42:35.162Z,100.00
2022-08-25T19:45:06.161Z,100.00
2022-08-25T19:47:34.120Z,100.00
2022-08-25T19:50:00.512Z,100.00
2022-08-25T19:52:26.909Z,100.00
2022-08-25T19:54:55.310Z,100.00
2022-08-25T19:57:28.236Z,100.00
2022-08-25T20:00:10.486Z,100.00
2022-08-25T20:02:40.185Z,100.00
2022-08-25T20:05:06.913Z,100.00
2022-08-25T20:07:34.034Z,100.00
2022-08-25T20:10:04.988Z,100.00
2022-08-25T20:12:34.435Z,100.00
2022-08-25T20:15:04.467Z,100.00
2022-08-25T20:17:31.329Z,100.00
2022-08-25T20:19:59.522Z,100.00
2022-08-25T20:22:27.248Z,100.00
2022-08-25T20:24:58.569Z,100.00
2022-08-25T20:27:32.502Z,100.00
2022-08-25T20:29:59.829Z,100.00
2022-08-25T20:32:29.317Z,100.00
2022-08-25T20:34:55.878Z,100.00
2022-08-25T20:37:22.727Z,100.00
2022-08-25T20:39:49.114Z,100.00
2022-08-25T20:42:15.456Z,100.00
2022-08-25T20:44:42.488Z,100.00
2022-08-25T20:47:10.320Z,100.00
2022-08-25T20:49:38.020Z,100.00
2022-08-25T20:52:04.632Z,100.00
2022-08-25T20:54:31.093Z,100.00
2022-08-25T20:56:57.573Z,100.00
2022-08-25T20:59:24.726Z,100.00
2022-08-25T21:01:51.624Z,100.00
2022-08-25T21:04:18.943Z,100.00
2022-08-25T21:06:46.939Z,100.00
2022-08-25T21:09:15.934Z,100.00
2022-08-25T21:11:43.677Z,100.00
2022-08-25T21:14:12.100Z,100.00
2022-08-25T21:16:38.806Z,100.00
2022-08-25T21:19:05.983Z,100.00
2022-08-25T21:21:37.455Z,100.00
2022-08-25T21:24:05.266Z,100.00
2022-08-25T21:26:35.557Z,100.00
2022-08-25T21:29:03.830Z,100.00
2022-08-25T21:31:30.772Z,100.00
2022-08-25T21:33:57.822Z,100.00
2022-08-25T21:36:25.397Z,100.00
2022-08-25T21:38:51.899Z,100.00
2022-08-25T21:41:23.266Z,100.00
2022-08-25T21:43:50.159Z,100.00
2022-08-25T21:46:17.942Z,100.00
2022-08-25T21:48:44.575Z,100.00
2022-08-25T21:51:13.576Z,100.00
2022-08-25T21:53:40.152Z,100.00
2022-08-25T21:56:12.147Z,100.00
2022-08-25T21:58:38.750Z,100.00
2022-08-25T22:01:11.167Z,100.00
2022-08-25T22:03:38.610Z,100.00
2022-08-25T22:06:06.663Z,100.00
2022-08-25T22:08:34.228Z,100.00
2022-08-25T22:11:01.167Z,100.00
2022-08-25T22:13:28.428Z,100.00
2022-08-25T22:15:55.606Z,100.00
2022-08-25T22:18:21.958Z,100.00
2022-08-25T22:20:48.879Z,100.00
2022-08-25T22:23:20.071Z,100.00
2022-08-25T22:25:47.134Z,100.00
2022-08-25T22:28:15.721Z,100.00
2022-08-25T22:30:42.656Z,100.00
2022-08-25T22:33:09.422Z,100.00
2022-08-25T22:35:35.881Z,100.00
2022-08-25T22:38:06.028Z,100.00
2022-08-25T22:40:34.619Z,100.00
2022-08-25T22:43:00.997Z,100.00
2022-08-25T22:45:27.987Z,100.00
2022-08-25T22:47:55.239Z,100.00
2022-08-25T22:50:21.636Z,100.00
2022-08-25T22:52:48.259Z,100.00
2022-08-25T22:55:14.827Z,100.00
2022-08-25T22:57:42.647Z,100.00
2022-08-25T23:00:10.974Z,100.00
2022-08-25T23:02:37.296Z,100.00
2022-08-25T23:05:04.085Z,100.00
2022-08-25T23:07:32.862Z,100.00
2022-08-25T23:10:02.495Z,100.00
2022-08-25T23:12:29.248Z,100.00
2022-08-25T23:14:55.810Z,100.00
2022-08-25T23:17:22.258Z,100.00
2022-08-25T23:19:48.614Z,100.00
2022-08-25T23:22:16.157Z,100.00
2022-08-25T23:24:44.258Z,100.00
2022-08-25T23:27:12.346Z,100.00
2022-08-25T23:29:39.615Z,100.00
2022-08-25T23:32:07.348Z,100.00
2022-08-25T23:34:34.709Z,100.00
2022-08-25T23:37:01.449Z,100.00
2022-08-25T23:39:27.776Z,100.00
2022-08-25T23:41:54.450Z,100.00
2022-08-25T23:44:21.732Z,100.00
2022-08-25T23:46:48.709Z,100.00
2022-08-25T23:49:18.404Z,100.00
2022-08-25T23:51:46.312Z,100.00
2022-08-25T23:54:14.643Z,100.00
2022-08-25T23:56:44.977Z,100.00
2022-08-25T23:59:18.864Z,100.00
